createdAt,value
2023-03-17T00:00:48.381Z,1.95
2023-03-17T00:03:23.081Z,1.85
2023-03-17T00:05:52.426Z,2.00
2023-03-17T00:08:29.355Z,1.77
2023-03-17T00:10:57.830Z,1.95
2023-03-17T00:13:27.097Z,1.95
2023-03-17T00:16:03.767Z,2.03
2023-03-17T00:18:34.305Z,2.33
2023-03-17T00:21:02.934Z,2.20
2023-03-17T00:23:31.449Z,1.83
2023-03-17T00:25:59.768Z,2.03
2023-03-17T00:28:29.209Z,2.00
2023-03-17T00:31:00.261Z,1.77
2023-03-17T00:33:31.268Z,2.25
2023-03-17T00:36:00.374Z,2.05
2023-03-17T00:38:28.835Z,2.28
2023-03-17T00:40:57.141Z,1.95
2023-03-17T00:43:25.393Z,2.65
2023-03-17T00:45:53.699Z,2.25
2023-03-17T00:48:22.708Z,1.90
2023-03-17T00:50:51.687Z,2.75
2023-03-17T00:53:22.544Z,2.13
2023-03-17T00:55:51.095Z,1.83
2023-03-17T00:58:31.558Z,2.28
2023-03-17T01:01:00.659Z,2.38
2023-03-17T01:03:29.698Z,2.22
2023-03-17T01:05:58.676Z,2.15
2023-03-17T01:08:27.621Z,2.53
2023-03-17T01:10:55.815Z,2.08
2023-03-17T01:13:24.876Z,2.15
2023-03-17T01:15:54.039Z,2.67
2023-03-17T01:18:23.774Z,2.40
2023-03-17T01:20:52.452Z,2.10
2023-03-17T01:23:20.850Z,1.88
2023-03-17T01:25:49.968Z,2.58
2023-03-17T01:28:20.479Z,2.30
2023-03-17T01:30:50.120Z,2.20
2023-03-17T01:33:18.392Z,2.05
2023-03-17T01:35:49.756Z,2.15
2023-03-17T01:38:18.396Z,2.10
2023-03-17T01:40:50.596Z,1.98
2023-03-17T01:43:20.922Z,2.25
2023-03-17T01:46:22.166Z,2.60
2023-03-17T01:49:05.107Z,1.80
2023-03-17T01:51:39.855Z,2.10
2023-03-17T01:54:17.898Z,1.90
2023-03-17T01:56:49.918Z,2.20
2023-03-17T01:59:31.897Z,1.98
2023-03-17T02:02:05.026Z,2.20
2023-03-17T02:04:34.933Z,2.22
2023-03-17T02:07:06.111Z,2.20
2023-03-17T02:09:35.311Z,1.98
2023-03-17T02:12:04.791Z,1.90
2023-03-17T02:14:33.096Z,2.00
2023-03-17T02:17:01.615Z,2.08
2023-03-17T02:19:30.069Z,2.35
2023-03-17T02:22:00.325Z,2.45
2023-03-17T02:24:34.702Z,2.10
2023-03-17T02:27:12.690Z,1.80
2023-03-17T02:29:41.307Z,2.20
2023-03-17T02:32:10.884Z,2.03
2023-03-17T02:34:39.113Z,2.05
2023-03-17T02:37:08.596Z,2.42
2023-03-17T02:39:37.249Z,2.33
2023-03-17T02:42:06.565Z,2.05
2023-03-17T02:44:34.770Z,2.17
2023-03-17T02:47:03.045Z,2.63
2023-03-17T02:49:32.978Z,2.38
2023-03-17T02:52:01.240Z,2.35
2023-03-17T02:54:29.566Z,2.28
2023-03-17T02:56:57.822Z,2.38
2023-03-17T02:59:26.077Z,2.30
2023-03-17T03:01:54.561Z,2.45
2023-03-17T03:04:23.221Z,2.15
2023-03-17T03:06:52.046Z,2.22
2023-03-17T03:09:20.328Z,1.98
2023-03-17T03:11:48.959Z,2.53
2023-03-17T03:14:17.260Z,2.30
2023-03-17T03:16:46.273Z,2.30
2023-03-17T03:19:14.763Z,2.38
2023-03-17T03:21:43.237Z,2.53
2023-03-17T03:24:12.423Z,2.47
2023-03-17T03:26:40.669Z,2.70
2023-03-17T03:29:09.896Z,2.55
2023-03-17T03:31:38.159Z,2.38
2023-03-17T03:34:06.774Z,2.45
2023-03-17T03:36:35.144Z,2.47
2023-03-17T03:39:04.077Z,2.35
2023-03-17T03:41:32.493Z,2.28
2023-03-17T03:44:01.143Z,2.58
2023-03-17T03:46:29.583Z,2.60
2023-03-17T03:48:57.811Z,2.25
2023-03-17T03:51:25.984Z,2.97
2023-03-17T03:53:54.235Z,2.40
2023-03-17T03:56:22.553Z,2.83
2023-03-17T03:58:52.080Z,2.67
2023-03-17T04:01:20.508Z,2.70
2023-03-17T04:03:48.780Z,2.70
2023-03-17T04:06:17.192Z,2.72
2023-03-17T04:08:45.870Z,2.60
2023-03-17T04:11:14.119Z,3.03
2023-03-17T04:13:42.906Z,2.88
2023-03-17T04:16:11.215Z,2.35
2023-03-17T04:18:39.509Z,2.40
2023-03-17T04:21:09.169Z,2.80
2023-03-17T04:23:37.512Z,2.78
2023-03-17T04:26:05.922Z,3.03
2023-03-17T04:28:34.147Z,3.10
2023-03-17T04:31:02.398Z,2.88
2023-03-17T04:33:30.606Z,2.72
2023-03-17T04:35:59.315Z,3.17
2023-03-17T04:38:27.553Z,2.30
2023-03-17T04:40:55.776Z,2.92
2023-03-17T04:43:23.983Z,2.53
2023-03-17T04:45:52.966Z,2.95
2023-03-17T04:48:21.341Z,2.67
2023-03-17T04:50:49.731Z,2.95
2023-03-17T04:53:18.558Z,2.75
2023-03-17T04:55:46.832Z,2.80
2023-03-17T04:58:29.581Z,3.53
2023-03-17T05:00:59.127Z,2.78
2023-03-17T05:03:28.949Z,3.17
2023-03-17T05:05:58.717Z,2.70
2023-03-17T05:08:29.140Z,3.10
2023-03-17T05:10:58.207Z,2.97
2023-03-17T05:13:27.372Z,3.13
2023-03-17T05:15:57.083Z,2.60
2023-03-17T05:18:27.138Z,2.75
2023-03-17T05:20:55.993Z,2.67
2023-03-17T05:23:24.547Z,3.15
2023-03-17T05:25:53.436Z,3.08
2023-03-17T05:28:22.678Z,2.85
2023-03-17T05:30:51.256Z,3.42
2023-03-17T05:33:20.339Z,3.03
2023-03-17T05:35:48.658Z,3.40
2023-03-17T05:38:17.278Z,2.30
2023-03-17T05:40:50.228Z,3.05
2023-03-17T05:43:18.815Z,2.90
2023-03-17T05:45:48.103Z,2.55
2023-03-17T05:48:16.496Z,3.20
2023-03-17T05:50:45.495Z,3.15
2023-03-17T05:53:13.697Z,2.90
2023-03-17T05:55:42.566Z,3.15
2023-03-17T05:58:10.827Z,2.65
2023-03-17T06:00:39.714Z,3.10
2023-03-17T06:03:08.685Z,3.00
2023-03-17T06:05:37.603Z,2.65
2023-03-17T06:08:06.610Z,2.80
2023-03-17T06:10:35.150Z,2.63
2023-03-17T06:13:05.382Z,2.63
2023-03-17T06:15:34.784Z,2.97
2023-03-17T06:18:03.310Z,2.78
2023-03-17T06:20:32.072Z,3.53
2023-03-17T06:23:04.997Z,2.80
2023-03-17T06:25:35.810Z,3.45
2023-03-17T06:28:06.303Z,2.97
2023-03-17T06:30:40.545Z,2.80
2023-03-17T06:33:09.509Z,3.40
2023-03-17T06:35:38.147Z,3.17
2023-03-17T06:38:06.649Z,2.60
2023-03-17T06:40:34.990Z,2.97
2023-03-17T06:43:03.842Z,2.72
2023-03-17T06:45:33.707Z,3.25
2023-03-17T06:48:02.531Z,2.85
2023-03-17T06:50:30.788Z,3.10
2023-03-17T06:52:59.006Z,2.92
2023-03-17T06:55:28.255Z,2.70
2023-03-17T06:57:56.709Z,3.13
2023-03-17T07:00:25.023Z,3.15
2023-03-17T07:02:53.479Z,3.00
2023-03-17T07:05:21.683Z,3.05
2023-03-17T07:07:50.650Z,3.33
2023-03-17T07:10:19.502Z,3.53
2023-03-17T07:12:47.912Z,3.80
2023-03-17T07:15:18.037Z,3.83
2023-03-17T07:17:58.845Z,4.03
2023-03-17T07:20:27.029Z,3.08
2023-03-17T07:22:55.332Z,3.72
2023-03-17T07:25:23.658Z,3.22
2023-03-17T07:27:52.770Z,2.75
2023-03-17T07:30:21.419Z,3.63
2023-03-17T07:32:50.140Z,3.55
2023-03-17T07:35:18.729Z,3.38
2023-03-17T07:37:47.117Z,3.88
2023-03-17T07:40:15.553Z,3.70
2023-03-17T07:42:44.082Z,3.10
2023-03-17T07:45:13.521Z,2.92
2023-03-17T07:47:41.768Z,4.07
2023-03-17T07:50:10.635Z,3.08
2023-03-17T07:52:38.974Z,3.40
2023-03-17T07:55:14.221Z,3.60
2023-03-17T07:57:42.572Z,3.40
2023-03-17T08:00:11.584Z,3.42
2023-03-17T08:02:40.034Z,3.67
2023-03-17T08:05:08.821Z,3.30
2023-03-17T08:07:41.339Z,3.83
2023-03-17T08:10:10.425Z,3.88
2023-03-17T08:12:38.667Z,3.83
2023-03-17T08:15:07.600Z,3.65
2023-03-17T08:17:37.304Z,3.30
2023-03-17T08:20:06.001Z,4.13
2023-03-17T08:22:34.261Z,3.58
2023-03-17T08:25:03.464Z,3.72
2023-03-17T08:27:33.658Z,3.72
2023-03-17T08:30:02.127Z,3.88
2023-03-17T08:32:30.421Z,3.63
2023-03-17T08:34:58.756Z,3.90
2023-03-17T08:37:27.188Z,4.32
2023-03-17T08:39:55.822Z,3.92
2023-03-17T08:42:24.312Z,3.60
2023-03-17T08:44:52.787Z,3.58
2023-03-17T08:47:20.986Z,3.65
2023-03-17T08:49:49.194Z,3.60
2023-03-17T08:52:17.962Z,3.38
2023-03-17T08:54:46.718Z,4.00
2023-03-17T08:57:15.804Z,3.38
2023-03-17T08:59:44.112Z,3.15
2023-03-17T09:02:13.511Z,3.40
2023-03-17T09:04:42.061Z,4.38
2023-03-17T09:07:11.244Z,3.03
2023-03-17T09:09:39.673Z,3.83
2023-03-17T09:12:08.692Z,3.35
2023-03-17T09:14:43.741Z,3.33
2023-03-17T09:17:14.690Z,2.97
2023-03-17T09:19:44.212Z,3.03
2023-03-17T09:22:17.205Z,3.05
2023-03-17T09:24:45.553Z,3.10
2023-03-17T09:27:14.375Z,2.85
2023-03-17T09:29:43.465Z,2.95
2023-03-17T09:32:12.058Z,3.15
2023-03-17T09:34:40.338Z,3.03
2023-03-17T09:37:10.596Z,2.92
2023-03-17T09:39:39.033Z,3.20
2023-03-17T09:42:39.738Z,3.58
2023-03-17T09:45:49.507Z,2.70
2023-03-17T09:48:41.901Z,2.70
2023-03-17T09:51:18.950Z,3.13
2023-03-17T09:54:13.583Z,2.90
2023-03-17T09:56:48.206Z,2.50
2023-03-17T10:01:47.307Z,3.17
2023-03-17T10:04:18.749Z,3.00
2023-03-17T10:06:48.404Z,2.80
2023-03-17T10:09:27.572Z,3.13
2023-03-17T10:12:25.869Z,2.80
2023-03-17T10:15:02.791Z,2.83
2023-03-17T10:17:41.502Z,2.60
2023-03-17T10:20:35.763Z,2.50
2023-03-17T10:23:13.127Z,3.00
2023-03-17T10:25:42.309Z,2.75
2023-03-17T10:28:26.829Z,2.58
2023-03-17T10:30:56.010Z,2.70
2023-03-17T10:33:24.283Z,2.70
2023-03-17T10:35:52.530Z,2.42
2023-03-17T10:38:23.611Z,2.60
2023-03-17T10:41:00.421Z,2.65
2023-03-17T10:43:37.175Z,2.40
2023-03-17T10:46:08.438Z,3.20
2023-03-17T10:48:39.716Z,2.72
2023-03-17T10:51:12.577Z,2.75
2023-03-17T10:53:45.747Z,2.53
2023-03-17T10:56:25.954Z,2.80
2023-03-17T10:58:56.333Z,2.83
2023-03-17T11:01:49.395Z,2.88
2023-03-17T11:04:39.379Z,2.70
2023-03-17T11:07:19.133Z,2.75
2023-03-17T11:09:52.451Z,2.95
2023-03-17T11:12:27.247Z,2.30
2023-03-17T11:20:31.297Z,2.42
2023-03-17T11:23:04.237Z,2.47
2023-03-17T11:25:35.712Z,2.80
2023-03-17T11:28:17.920Z,2.67
2023-03-17T11:31:04.233Z,3.00
2023-03-17T11:33:43.722Z,2.83
2023-03-17T11:36:46.630Z,2.53
2023-03-17T11:39:21.593Z,3.00
2023-03-17T11:42:15.711Z,2.70
2023-03-17T11:45:17.731Z,2.80
2023-03-17T11:48:04.442Z,2.90
2023-03-17T11:50:46.957Z,2.67
2023-03-17T11:53:35.882Z,2.47
2023-03-17T11:56:21.599Z,2.80
2023-03-17T11:58:57.346Z,3.15
2023-03-17T12:01:33.566Z,2.70
2023-03-17T12:04:21.482Z,2.92
2023-03-17T12:07:21.635Z,2.85
2023-03-17T12:10:05.347Z,2.53
2023-03-17T12:12:40.452Z,2.97
2023-03-17T12:15:19.681Z,2.70
2023-03-17T12:17:58.485Z,2.90
2023-03-17T12:20:48.933Z,2.40
2023-03-17T12:23:32.682Z,2.53
2023-03-17T12:26:17.321Z,2.75
2023-03-17T12:29:01.354Z,2.83
2023-03-17T12:31:38.443Z,2.83
2023-03-17T12:34:29.790Z,2.28
2023-03-17T12:36:58.123Z,2.53
2023-03-17T12:39:33.843Z,3.03
2023-03-17T12:42:11.809Z,2.60
2023-03-17T12:44:51.469Z,3.05
2023-03-17T12:47:31.509Z,2.78
2023-03-17T12:50:21.045Z,2.60
2023-03-17T12:53:13.256Z,2.90
2023-03-17T12:55:46.454Z,2.85
2023-03-17T12:58:34.916Z,3.10
2023-03-17T13:01:25.054Z,2.92
2023-03-17T13:04:05.584Z,3.03
2023-03-17T13:06:55.705Z,2.97
2023-03-17T13:09:40.304Z,2.55
2023-03-17T13:12:28.465Z,3.00
2023-03-17T13:14:59.753Z,2.63
2023-03-17T13:17:33.190Z,2.92
2023-03-17T13:20:12.970Z,3.30
2023-03-17T13:23:03.257Z,2.70
2023-03-17T13:25:42.301Z,2.53
2023-03-17T13:28:13.642Z,2.97
2023-03-17T13:30:41.953Z,2.70
2023-03-17T13:33:13.905Z,3.00
2023-03-17T13:36:20.351Z,2.70
2023-03-17T13:39:18.797Z,2.67
2023-03-17T13:42:11.837Z,2.67
2023-03-17T13:45:04.989Z,3.00
2023-03-17T13:47:45.968Z,2.90
2023-03-17T13:50:22.127Z,2.53
2023-03-17T13:52:51.500Z,2.70
2023-03-17T13:55:19.751Z,2.88
2023-03-17T13:58:18.388Z,2.78
2023-03-17T14:00:52.390Z,2.78
2023-03-17T14:03:49.776Z,2.70
2023-03-17T14:06:20.532Z,2.67
2023-03-17T14:09:09.136Z,2.50
2023-03-17T14:11:40.281Z,2.78
2023-03-17T14:14:32.068Z,2.67
2023-03-17T14:17:06.005Z,2.58
2023-03-17T14:19:34.285Z,2.80
2023-03-17T14:22:23.514Z,2.90
2023-03-17T14:25:02.536Z,2.90
2023-03-17T14:27:34.816Z,3.15
2023-03-17T14:30:18.260Z,2.40
2023-03-17T14:33:14.801Z,2.83
2023-03-17T14:35:44.555Z,2.95
2023-03-17T14:38:29.136Z,2.80
2023-03-17T14:41:09.347Z,2.65
2023-03-17T14:43:38.133Z,3.40
2023-03-17T14:46:07.565Z,2.88
2023-03-17T14:48:39.131Z,2.88
2023-03-17T14:51:23.851Z,3.13
2023-03-17T14:53:54.034Z,3.35
2023-03-17T14:56:30.742Z,3.33
2023-03-17T14:59:06.778Z,3.42
2023-03-17T15:01:43.001Z,3.92
2023-03-17T15:04:21.353Z,4.85
2023-03-17T15:06:58.094Z,5.15
2023-03-17T15:09:40.309Z,6.30
2023-03-17T15:12:17.091Z,6.57
2023-03-17T15:14:47.505Z,7.53
2023-03-17T15:17:27.593Z,6.72
2023-03-17T15:19:59.015Z,5.47
2023-03-17T15:22:43.656Z,5.68
2023-03-17T15:25:34.416Z,6.45
2023-03-17T15:28:02.634Z,6.20
2023-03-17T15:30:44.316Z,6.45
2023-03-17T15:33:29.556Z,6.35
2023-03-17T15:36:00.871Z,5.93
2023-03-17T15:38:29.896Z,6.55
2023-03-17T15:40:58.196Z,6.13
2023-03-17T15:43:26.739Z,6.60
2023-03-17T15:46:06.640Z,6.85
2023-03-17T15:48:39.812Z,6.18
2023-03-17T15:51:08.361Z,6.72
2023-03-17T15:53:36.623Z,7.13
2023-03-17T15:56:05.073Z,7.00
2023-03-17T15:58:33.396Z,7.50
2023-03-17T16:01:02.188Z,7.22
2023-03-17T16:03:36.044Z,6.90
2023-03-17T16:06:08.990Z,7.10
2023-03-17T16:08:38.466Z,6.72
2023-03-17T16:11:08.585Z,7.00
2023-03-17T16:13:36.793Z,6.80
2023-03-17T16:16:06.475Z,6.88
2023-03-17T16:18:38.532Z,6.43
2023-03-17T16:21:06.856Z,6.57
2023-03-17T16:23:37.627Z,6.50
2023-03-17T16:26:14.805Z,7.05
2023-03-17T16:28:46.398Z,6.38
2023-03-17T16:31:32.530Z,6.68
2023-03-17T16:34:01.141Z,5.93
2023-03-17T16:36:29.370Z,5.72
2023-03-17T16:38:57.974Z,5.13
2023-03-17T16:41:28.232Z,5.82
2023-03-17T16:44:03.553Z,6.10
2023-03-17T16:46:35.689Z,6.47
2023-03-17T16:49:05.145Z,5.97
2023-03-17T16:51:33.404Z,6.78
2023-03-17T16:54:01.677Z,6.28
2023-03-17T16:56:30.689Z,6.13
2023-03-17T16:58:59.004Z,5.50
2023-03-17T17:01:29.059Z,6.20
2023-03-17T17:03:58.030Z,6.97
2023-03-17T17:06:26.904Z,5.90
2023-03-17T17:08:55.201Z,5.65
2023-03-17T17:11:23.463Z,5.82
2023-03-17T17:13:52.531Z,6.40
2023-03-17T17:16:23.563Z,5.50
2023-03-17T17:18:51.839Z,5.47
2023-03-17T17:21:20.207Z,5.63
2023-03-17T17:23:49.255Z,5.40
2023-03-17T17:26:18.444Z,5.72
2023-03-17T17:28:47.067Z,6.07
2023-03-17T17:31:15.368Z,5.85
2023-03-17T17:33:43.628Z,5.05
2023-03-17T17:36:17.545Z,5.20
2023-03-17T17:38:46.358Z,5.25
2023-03-17T17:41:17.824Z,5.03
2023-03-17T17:43:47.112Z,5.22
2023-03-17T17:46:24.645Z,4.88
2023-03-17T17:48:53.041Z,5.32
2023-03-17T17:51:21.533Z,4.68
2023-03-17T17:53:49.751Z,4.75
2023-03-17T17:56:19.281Z,4.78
2023-03-17T17:58:47.977Z,4.40
2023-03-17T18:01:20.470Z,5.38
2023-03-17T18:03:49.429Z,4.68
2023-03-17T18:06:18.750Z,4.22
2023-03-17T18:08:47.676Z,4.72
2023-03-17T18:11:15.904Z,4.70
2023-03-17T18:13:44.270Z,4.85
2023-03-17T18:16:16.480Z,4.43
2023-03-17T18:18:46.815Z,4.63
2023-03-17T18:21:15.126Z,4.57
2023-03-17T18:23:47.786Z,4.80
2023-03-17T18:26:18.033Z,4.97
2023-03-17T18:28:46.716Z,5.43
2023-03-17T18:31:21.675Z,4.57
2023-03-17T18:33:53.825Z,5.18
2023-03-17T18:36:22.657Z,4.70
2023-03-17T18:38:50.962Z,4.38
2023-03-17T18:41:19.352Z,4.72
2023-03-17T18:43:47.574Z,4.50
2023-03-17T18:46:16.020Z,4.78
2023-03-17T18:48:44.609Z,4.88
2023-03-17T18:51:12.842Z,4.38
2023-03-17T18:53:41.186Z,4.78
2023-03-17T18:56:10.087Z,5.20
2023-03-17T18:58:38.404Z,5.93
2023-03-17T19:01:07.341Z,5.65
2023-03-17T19:03:36.033Z,5.40
2023-03-17T19:06:19.606Z,4.70
2023-03-17T19:08:49.170Z,4.95
2023-03-17T19:11:20.197Z,5.43
2023-03-17T19:13:48.469Z,5.38
2023-03-17T19:16:17.560Z,4.70
2023-03-17T19:18:47.197Z,4.65
2023-03-17T19:21:15.464Z,4.47
2023-03-17T19:23:44.074Z,4.70
2023-03-17T19:26:12.565Z,3.70
2023-03-17T19:28:41.083Z,3.92
2023-03-17T19:31:10.172Z,4.60
2023-03-17T19:33:38.713Z,5.22
2023-03-17T19:36:10.348Z,4.53
2023-03-17T19:38:39.628Z,4.25
2023-03-17T19:41:08.318Z,4.30
2023-03-17T19:43:41.272Z,3.67
2023-03-17T19:46:12.073Z,4.22
2023-03-17T19:48:41.561Z,4.90
2023-03-17T19:51:10.278Z,4.70
2023-03-17T19:53:38.655Z,4.82
2023-03-17T19:56:07.522Z,4.65
2023-03-17T19:58:36.145Z,4.80
2023-03-17T20:01:06.071Z,5.07
2023-03-17T20:03:36.023Z,4.50
2023-03-17T20:06:07.112Z,4.55
2023-03-17T20:08:36.506Z,4.60
2023-03-17T20:11:06.404Z,3.95
2023-03-17T20:13:36.246Z,3.78
2023-03-17T20:16:05.392Z,3.20
2023-03-17T20:18:34.393Z,3.35
2023-03-17T20:21:06.299Z,2.83
2023-03-17T20:23:34.936Z,2.47
2023-03-17T20:26:04.452Z,3.10
2023-03-17T20:28:33.426Z,2.80
2023-03-17T20:31:03.768Z,2.47
2023-03-17T20:33:34.145Z,2.40
2023-03-17T20:36:03.979Z,2.45
2023-03-17T20:38:37.637Z,2.25
2023-03-17T20:41:15.342Z,2.90
2023-03-17T20:43:43.896Z,2.50
2023-03-17T20:46:20.705Z,2.50
2023-03-17T20:48:49.792Z,3.00
2023-03-17T20:51:18.586Z,2.33
2023-03-17T20:53:50.392Z,2.83
2023-03-17T20:56:21.137Z,2.80
2023-03-17T20:58:51.218Z,3.20
2023-03-17T21:01:21.439Z,2.80
2023-03-17T21:03:51.017Z,2.85
2023-03-17T21:06:22.513Z,2.92
2023-03-17T21:08:51.860Z,2.80
2023-03-17T21:11:23.946Z,3.17
2023-03-17T21:13:52.691Z,2.70
2023-03-17T21:16:29.397Z,2.90
2023-03-17T21:18:57.818Z,2.67
2023-03-17T21:21:26.081Z,2.60
2023-03-17T21:23:54.902Z,2.30
2023-03-17T21:26:23.797Z,2.40
2023-03-17T21:28:53.397Z,2.33
2023-03-17T21:31:21.805Z,2.60
2023-03-17T21:33:51.331Z,2.50
2023-03-17T21:36:21.706Z,2.67
2023-03-17T21:38:49.917Z,2.40
2023-03-17T21:41:34.344Z,2.35
2023-03-17T21:44:04.002Z,2.65
2023-03-17T21:46:32.746Z,2.35
2023-03-17T21:49:02.305Z,2.40
2023-03-17T21:51:30.839Z,1.83
2023-03-17T21:53:59.535Z,1.85
2023-03-17T21:56:28.262Z,1.98
2023-03-17T21:58:57.261Z,2.03
2023-03-17T22:01:25.601Z,1.92
2023-03-17T22:03:54.037Z,1.90
2023-03-17T22:06:22.613Z,2.15
2023-03-17T22:08:51.434Z,2.05
2023-03-17T22:11:21.000Z,1.83
2023-03-17T22:13:49.718Z,2.30
2023-03-17T22:16:19.390Z,2.42
2023-03-17T22:18:48.961Z,2.53
2023-03-17T22:21:17.301Z,2.70
2023-03-17T22:23:46.009Z,2.42
2023-03-17T22:26:16.603Z,2.25
2023-03-17T22:28:46.441Z,2.30
2023-03-17T22:31:22.679Z,2.50
2023-03-17T22:33:55.327Z,2.45
2023-03-17T22:36:25.662Z,2.10
2023-03-17T22:38:54.449Z,2.40
2023-03-17T22:41:25.107Z,1.90
2023-03-17T22:43:53.315Z,3.83
2023-03-17T22:46:22.575Z,2.55
2023-03-17T22:48:52.641Z,2.38
2023-03-17T22:51:24.448Z,2.35
2023-03-17T22:53:53.447Z,2.17
2023-03-17T22:56:22.541Z,2.40
2023-03-17T22:58:51.157Z,2.20
2023-03-17T23:01:21.110Z,2.70
2023-03-17T23:03:49.494Z,2.38
2023-03-17T23:06:18.608Z,2.22
2023-03-17T23:08:47.617Z,2.30
2023-03-17T23:11:19.233Z,2.70
2023-03-17T23:13:49.148Z,2.25
2023-03-17T23:16:18.306Z,2.25
2023-03-17T23:18:47.191Z,2.00
2023-03-17T23:21:34.645Z,2.30
2023-03-17T23:24:04.413Z,2.35
2023-03-17T23:26:33.094Z,3.00
2023-03-17T23:29:01.588Z,2.25
2023-03-17T23:31:29.812Z,2.40
2023-03-17T23:33:58.033Z,2.10
2023-03-17T23:36:26.597Z,2.20
2023-03-17T23:38:55.064Z,2.25
2023-03-17T23:41:23.563Z,2.10
2023-03-17T23:43:52.166Z,2.20
2023-03-17T23:46:21.484Z,2.25
2023-03-17T23:48:50.856Z,2.38
2023-03-17T23:51:19.918Z,1.77
2023-03-17T23:53:48.912Z,2.10
2023-03-17T23:56:17.157Z,2.13
2023-03-17T23:58:45.818Z,2.42
